Time;durP1;ratioP1;P1;durP2;ratioP2;P2;SDS_P1;SDS_P2;PMS_P1;PMS_P2;Temp;Humidity;BMP_temperature;BMP_pressure;BME280_temperature;BME280_humidity;BME280_pressure;Samples;Min_cycle;Max_cycle;Signal;HPM_P1;HPM_P2
2022/03/25 00:02:09;;;;;;;20.45;12.57;;;10.50;37.60;;;;;;5096155;28;20172;-66
2022/03/25 00:04:35;;;;;;;21.85;12.57;;;10.50;37.60;;;;;;5096033;28;20024;-66
2022/03/25 00:07:01;;;;;;;21.95;11.55;;;10.40;37.50;;;;;;5096052;28;20068;-66
2022/03/25 00:09:30;;;;;;;20.80;12.52;;;10.30;37.50;;;;;;5090986;27;20042;-66
2022/03/25 00:12:04;;;;;;;27.42;14.10;;;10.30;37.50;;;;;;5094446;28;20036;-67
2022/03/25 00:14:35;;;;;;;18.55;12.57;;;10.30;37.90;;;;;;5075594;28;20028;-67
2022/03/25 00:17:04;;;;;;;21.85;13.43;;;10.30;37.70;;;;;;5093867;28;20032;-67
2022/03/25 00:19:29;;;;;;;22.67;13.55;;;10.30;37.60;;;;;;5094036;28;20116;-67
2022/03/25 00:21:55;;;;;;;25.23;13.32;;;10.20;37.60;;;;;;5086903;28;20126;-68
2022/03/25 00:24:25;;;;;;;26.27;14.77;;;10.20;37.90;;;;;;5113845;28;20023;-67
2022/03/25 00:26:51;;;;;;;25.80;14.10;;;10.20;38.10;;;;;;5095075;28;20031;-67
2022/03/25 00:29:20;;;;;;;24.92;15.05;;;10.20;38.00;;;;;;5108803;27;20028;-66
2022/03/25 00:31:46;;;;;;;26.80;13.77;;;10.20;38.20;;;;;;5091897;27;20378;-66
2022/03/25 00:34:12;;;;;;;23.58;14.02;;;10.20;37.70;;;;;;5097222;28;20032;-67
2022/03/25 00:36:38;;;;;;;23.05;12.75;;;10.20;37.60;;;;;;5092007;28;20039;-67
2022/03/25 00:39:05;;;;;;;22.80;13.40;;;10.20;37.50;;;;;;5104904;28;20035;-66
2022/03/25 00:41:32;;;;;;;24.52;14.93;;;10.10;37.50;;;;;;5076272;28;20126;-66
2022/03/25 00:43:58;;;;;;;29.38;13.85;;;10.10;37.60;;;;;;5106712;28;20027;-67
2022/03/25 00:46:24;;;;;;;25.92;13.77;;;10.10;37.70;;;;;;5093458;28;20396;-67
2022/03/25 00:48:50;;;;;;;26.77;14.52;;;10.00;37.70;;;;;;5105720;28;20036;-66
2022/03/25 00:51:15;;;;;;;27.08;14.82;;;10.00;37.90;;;;;;5113376;28;20027;-66
2022/03/25 00:53:41;;;;;;;21.10;12.70;;;10.00;38.00;;;;;;5095159;28;20455;-65
2022/03/25 00:56:07;;;;;;;22.63;13.93;;;10.00;38.10;;;;;;5104989;28;20069;-66
2022/03/25 00:58:33;;;;;;;20.67;13.40;;;9.90;38.20;;;;;;5092989;28;20052;-67
2022/03/25 01:00:59;;;;;;;20.92;12.18;;;9.90;38.20;;;;;;5093367;28;20032;-66
2022/03/25 01:03:25;;;;;;;24.92;13.95;;;9.90;38.00;;;;;;5093176;28;20024;-68
2022/03/25 01:05:52;;;;;;;23.63;14.20;;;9.80;38.30;;;;;;5092792;28;20028;-67
2022/03/25 01:08:18;;;;;;;24.38;13.70;;;9.80;38.30;;;;;;5093084;28;20032;-66
2022/03/25 01:10:44;;;;;;;25.35;13.98;;;9.80;38.80;;;;;;5093496;28;20486;-67
2022/03/25 01:13:10;;;;;;;24.15;14.05;;;9.70;38.90;;;;;;5093031;28;20035;-66
2022/03/25 01:15:37;;;;;;;24.25;13.02;;;9.70;39.50;;;;;;5089601;28;20027;-66
2022/03/25 01:18:03;;;;;;;25.40;13.52;;;9.60;39.20;;;;;;5095009;28;20374;-66
2022/03/25 01:20:30;;;;;;;20.80;12.63;;;9.60;39.50;;;;;;5113159;28;20024;-66
2022/03/25 01:22:56;;;;;;;29.05;14.15;;;9.50;39.30;;;;;;5089264;28;20032;-66
2022/03/25 01:25:22;;;;;;;23.73;14.05;;;9.50;39.40;;;;;;5106507;28;20069;-66
2022/03/25 01:27:48;;;;;;;24.77;14.00;;;9.50;39.50;;;;;;5094941;28;20478;-67
2022/03/25 01:30:13;;;;;;;25.80;14.18;;;9.40;39.30;;;;;;5095082;28;20024;-66
2022/03/25 01:32:39;;;;;;;24.55;13.85;;;9.40;39.60;;;;;;5100079;28;20038;-66
2022/03/25 01:35:12;;;;;;;28.42;14.05;;;9.40;39.50;;;;;;5093968;28;20032;-66
2022/03/25 01:37:38;;;;;;;26.48;15.38;;;9.30;40.20;;;;;;5079078;28;20391;-66
2022/03/25 01:40:09;;;;;;;23.73;14.18;;;9.30;40.30;;;;;;5114490;28;20262;-66
2022/03/25 01:42:41;;;;;;;28.45;15.85;;;9.20;40.40;;;;;;5103283;28;20347;-66
2022/03/25 01:45:11;;;;;;;24.60;12.90;;;9.20;40.60;;;;;;5112734;28;20677;-67
2022/03/25 01:47:42;;;;;;;25.67;11.32;;;9.20;40.20;;;;;;5094839;28;20119;-67
2022/03/25 01:50:20;;;;;;;24.45;13.32;;;9.10;40.00;;;;;;5081744;28;20042;-66
2022/03/25 01:52:49;;;;;;;22.98;12.65;;;9.10;40.40;;;;;;5108626;28;20082;-66
2022/03/25 01:55:21;;;;;;;22.70;12.88;;;9.10;40.20;;;;;;5094928;28;20077;-67
2022/03/25 01:57:49;;;;;;;26.88;13.40;;;9.10;40.30;;;;;;5094472;28;20135;-65
2022/03/25 02:00:17;;;;;;;25.45;14.32;;;9.00;40.40;;;;;;5113294;28;20069;-67
2022/03/25 02:02:43;;;;;;;25.58;13.98;;;9.00;40.60;;;;;;5107829;28;20024;-65
2022/03/25 02:05:12;;;;;;;25.35;13.95;;;9.00;40.90;;;;;;5075236;28;20359;-66
2022/03/25 02:07:38;;;;;;;26.88;13.93;;;9.00;41.40;;;;;;5077173;28;20081;-66
2022/03/25 02:10:05;;;;;;;22.10;12.65;;;8.90;41.10;;;;;;5110207;28;20036;-67
2022/03/25 02:12:38;;;;;;;23.33;14.95;;;8.90;40.90;;;;;;5098169;28;20023;-66
2022/03/25 02:15:05;;;;;;;22.70;12.48;;;8.90;40.90;;;;;;5098069;28;20032;-66
2022/03/25 02:17:31;;;;;;;28.92;15.35;;;8.90;40.80;;;;;;5082328;28;20105;-66
2022/03/25 02:20:00;;;;;;;31.70;14.10;;;8.80;40.90;;;;;;5095930;28;20028;-67
2022/03/25 02:22:31;;;;;;;23.77;13.95;;;8.80;40.80;;;;;;5078144;28;20031;-67
2022/03/25 02:25:00;;;;;;;36.65;16.20;;;8.80;40.80;;;;;;5086234;28;20028;-66
2022/03/25 02:27:26;;;;;;;30.75;16.13;;;8.70;41.00;;;;;;5097655;28;20145;-66
2022/03/25 02:29:52;;;;;;;25.10;14.20;;;8.70;41.30;;;;;;5097506;28;20024;-65
2022/03/25 02:32:20;;;;;;;28.30;13.52;;;8.70;41.20;;;;;;5112222;28;20028;-66
2022/03/25 02:34:45;;;;;;;28.45;14.82;;;8.70;41.30;;;;;;5096130;28;20028;-67
2022/03/25 02:37:11;;;;;;;28.08;15.65;;;8.60;41.30;;;;;;5095267;28;20083;-66
2022/03/25 02:39:37;;;;;;;29.85;15.15;;;8.60;41.50;;;;;;5094115;28;20030;-67
2022/03/25 02:42:06;;;;;;;25.67;15.23;;;8.60;41.70;;;;;;5097496;28;20470;-66
2022/03/25 02:44:31;;;;;;;31.55;14.30;;;8.60;41.90;;;;;;5115720;28;20031;-66
2022/03/25 02:46:57;;;;;;;25.95;15.02;;;8.50;41.80;;;;;;5111617;28;20363;-66
2022/03/25 02:49:24;;;;;;;30.65;14.95;;;8.50;41.70;;;;;;5105721;28;20028;-67
2022/03/25 02:51:50;;;;;;;31.55;16.67;;;8.50;42.00;;;;;;5094251;28;20379;-67
2022/03/25 02:54:16;;;;;;;27.80;14.90;;;8.50;42.10;;;;;;5095263;28;20081;-66
2022/03/25 02:56:41;;;;;;;27.23;15.02;;;8.50;42.30;;;;;;5093650;28;20084;-65
2022/03/25 02:59:07;;;;;;;27.88;14.35;;;8.40;42.30;;;;;;5093767;28;20123;-67
2022/03/25 03:01:33;;;;;;;29.13;13.48;;;8.40;42.30;;;;;;5093742;28;20028;-65
2022/03/25 03:03:59;;;;;;;24.77;14.27;;;8.40;42.40;;;;;;5095003;28;20467;-67
2022/03/25 03:06:25;;;;;;;27.00;14.63;;;8.40;42.60;;;;;;5094960;28;20136;-67
2022/03/25 03:08:51;;;;;;;27.92;13.57;;;8.30;42.60;;;;;;5094860;28;20024;-66
2022/03/25 03:11:20;;;;;;;28.63;15.50;;;8.30;42.70;;;;;;5097160;28;20378;-67
2022/03/25 03:13:46;;;;;;;24.50;14.80;;;8.30;43.20;;;;;;5096933;28;20388;-65
2022/03/25 03:16:11;;;;;;;26.42;15.50;;;8.30;43.60;;;;;;5112107;28;20028;-66
2022/03/25 03:18:38;;;;;;;23.33;14.15;;;8.30;43.30;;;;;;5115239;28;20032;-67
2022/03/25 03:21:07;;;;;;;30.95;15.63;;;8.30;42.90;;;;;;5115306;28;20027;-66
2022/03/25 03:23:35;;;;;;;24.65;14.52;;;8.20;43.20;;;;;;5096958;28;20042;-67
2022/03/25 03:26:01;;;;;;;24.98;14.40;;;8.20;43.20;;;;;;5112967;28;20024;-67
2022/03/25 03:28:29;;;;;;;42.72;15.68;;;8.20;43.30;;;;;;5096514;28;20078;-67
2022/03/25 03:30:55;;;;;;;32.92;15.48;;;8.20;43.20;;;;;;5076442;28;20028;-66
2022/03/25 03:33:21;;;;;;;25.25;14.00;;;8.20;43.40;;;;;;5076113;28;20035;-66
2022/03/25 03:35:47;;;;;;;26.15;14.82;;;8.10;43.20;;;;;;5076275;28;20084;-66
2022/03/25 03:38:13;;;;;;;29.23;14.63;;;8.10;43.40;;;;;;5094278;28;20169;-67
2022/03/25 03:40:39;;;;;;;35.90;16.15;;;8.10;43.20;;;;;;5077468;28;20024;-65
2022/03/25 03:43:10;;;;;;;31.27;15.20;;;8.10;43.30;;;;;;5087234;28;20383;-66
2022/03/25 03:45:35;;;;;;;35.90;14.70;;;8.00;43.30;;;;;;5079176;28;20024;-68
2022/03/25 03:48:01;;;;;;;44.50;16.77;;;8.00;43.60;;;;;;5096320;28;20035;-66
2022/03/25 03:50:27;;;;;;;32.50;15.70;;;8.00;43.90;;;;;;5096276;28;20028;-66
2022/03/25 03:52:53;;;;;;;38.92;16.50;;;8.00;43.80;;;;;;5123426;27;20481;-66
2022/03/25 03:55:19;;;;;;;43.83;16.08;;;8.00;43.90;;;;;;5117466;27;20360;-65
2022/03/25 03:57:45;;;;;;;51.42;17.58;;;8.00;44.10;;;;;;5094744;28;20532;-66
2022/03/25 04:00:13;;;;;;;46.47;17.25;;;7.90;44.10;;;;;;5093686;28;20099;-65
2022/03/25 04:02:41;;;;;;;39.03;16.73;;;8.00;44.20;;;;;;5089847;28;20055;-67
2022/03/25 04:05:10;;;;;;;33.28;14.48;;;7.90;44.20;;;;;;5096011;28;20114;-66
2022/03/25 04:07:48;;;;;;;36.95;16.08;;;7.90;44.00;;;;;;5114186;28;20111;-66
2022/03/25 04:10:16;;;;;;;32.63;15.93;;;7.90;44.30;;;;;;5086837;28;20027;-66
2022/03/25 04:12:42;;;;;;;42.88;16.85;;;7.90;44.20;;;;;;5075183;28;20052;-66
2022/03/25 04:15:09;;;;;;;45.45;16.85;;;7.80;44.20;;;;;;5075438;28;20031;-67
2022/03/25 04:17:39;;;;;;;38.05;16.92;;;7.80;44.70;;;;;;5112999;28;20393;-67
2022/03/25 04:20:06;;;;;;;36.47;15.57;;;7.80;44.80;;;;;;5095619;28;20077;-66
2022/03/25 04:22:32;;;;;;;41.70;17.67;;;7.80;44.60;;;;;;5114139;28;20092;-66
2022/03/25 04:24:58;;;;;;;36.33;17.48;;;7.80;44.70;;;;;;5095050;28;20051;-67
2022/03/25 04:27:24;;;;;;;32.17;16.65;;;7.80;44.80;;;;;;5091792;28;20415;-66
2022/03/25 04:29:52;;;;;;;30.73;17.23;;;7.80;44.80;;;;;;5092803;28;20371;-67
2022/03/25 04:32:21;;;;;;;27.55;15.13;;;7.80;44.80;;;;;;5092080;28;20081;-66
2022/03/25 04:34:49;;;;;;;24.00;14.60;;;7.70;44.60;;;;;;5074841;28;20028;-67
2022/03/25 04:37:18;;;;;;;27.77;14.85;;;7.80;44.80;;;;;;5087677;28;20383;-67
2022/03/25 04:39:43;;;;;;;26.60;14.32;;;7.70;44.80;;;;;;5084340;28;20520;-66
2022/03/25 04:42:09;;;;;;;25.25;14.73;;;7.70;44.80;;;;;;5113600;28;20023;-67
2022/03/25 04:44:35;;;;;;;25.10;14.90;;;7.70;45.20;;;;;;5095464;28;20055;-67
2022/03/25 04:47:04;;;;;;;30.25;16.45;;;7.70;45.20;;;;;;5094998;28;20031;-66
2022/03/25 04:49:30;;;;;;;27.60;14.68;;;7.70;45.20;;;;;;5095708;28;20156;-66
2022/03/25 04:51:58;;;;;;;26.42;15.25;;;7.60;45.10;;;;;;5086709;28;20055;-67
2022/03/25 04:54:29;;;;;;;24.00;14.32;;;7.60;45.10;;;;;;5093636;28;20028;-66
2022/03/25 04:56:54;;;;;;;32.25;17.13;;;7.60;45.00;;;;;;5110784;28;20046;-67
2022/03/25 04:59:23;;;;;;;30.75;16.65;;;7.60;45.20;;;;;;5113118;28;20036;-66
2022/03/25 05:01:49;;;;;;;23.55;14.25;;;7.60;45.30;;;;;;5113558;28;20016;-66
2022/03/25 05:04:18;;;;;;;29.00;16.45;;;7.60;45.10;;;;;;5113745;28;20024;-66
2022/03/25 05:06:43;;;;;;;35.38;16.85;;;7.60;45.50;;;;;;5094225;28;20030;-66
2022/03/25 05:09:10;;;;;;;26.63;14.82;;;7.60;45.90;;;;;;5074688;28;20122;-67
2022/03/25 05:11:37;;;;;;;25.58;15.30;;;7.60;45.90;;;;;;5098393;28;20019;-66
2022/03/25 05:14:03;;;;;;;25.73;14.35;;;7.60;46.00;;;;;;5094738;28;20500;-66
2022/03/25 05:16:29;;;;;;;22.67;13.48;;;7.70;46.00;;;;;;5113109;28;20073;-66
2022/03/25 05:18:55;;;;;;;24.02;13.38;;;7.70;45.90;;;;;;5094958;28;20039;-66
2022/03/25 05:21:23;;;;;;;29.40;15.95;;;7.70;46.00;;;;;;5093639;28;20278;-66
2022/03/25 05:23:49;;;;;;;27.58;15.73;;;7.70;45.90;;;;;;5112500;28;20038;-67
2022/03/25 05:26:23;;;;;;;26.95;15.85;;;7.70;46.10;;;;;;5074975;28;20135;-66
2022/03/25 05:28:52;;;;;;;31.35;17.25;;;7.70;46.20;;;;;;5074669;28;20032;-66
2022/03/25 05:31:20;;;;;;;31.95;14.88;;;7.80;46.30;;;;;;5075118;28;20071;-67
2022/03/25 05:33:46;;;;;;;28.02;16.15;;;7.80;46.40;;;;;;5092728;28;20107;-66
2022/03/25 05:36:12;;;;;;;29.55;14.85;;;7.80;46.50;;;;;;5093041;28;20427;-66
2022/03/25 05:38:41;;;;;;;22.98;14.75;;;7.80;46.60;;;;;;5074562;28;20059;-67
2022/03/25 05:41:10;;;;;;;25.10;14.40;;;7.90;47.10;;;;;;5109445;28;20020;-66
2022/03/25 05:43:36;;;;;;;29.02;14.20;;;7.90;46.70;;;;;;5087968;28;20027;-66
2022/03/25 05:46:05;;;;;;;26.67;14.27;;;8.00;46.80;;;;;;5116985;28;20152;-66
2022/03/25 05:48:34;;;;;;;26.23;14.93;;;8.00;46.80;;;;;;5098630;28;20031;-67
2022/03/25 05:51:03;;;;;;;32.83;16.63;;;8.00;46.80;;;;;;5093843;28;20032;-66
2022/03/25 05:53:32;;;;;;;32.95;17.58;;;8.10;47.70;;;;;;5096878;28;20039;-67
2022/03/25 05:56:00;;;;;;;25.02;15.23;;;8.10;47.60;;;;;;5096575;28;20040;-67
2022/03/25 05:58:26;;;;;;;26.40;15.18;;;8.20;47.40;;;;;;5062965;28;20080;-67
2022/03/25 06:00:52;;;;;;;28.30;16.05;;;8.20;47.30;;;;;;5075577;28;20024;-66
2022/03/25 06:03:27;;;;;;;32.95;16.98;;;8.30;47.30;;;;;;5077955;28;20086;-66
2022/03/25 06:05:54;;;;;;;34.08;17.05;;;8.40;47.60;;;;;;5077604;28;20031;-66
2022/03/25 06:08:23;;;;;;;28.67;17.42;;;8.40;47.80;;;;;;5078487;28;20028;-66
2022/03/25 06:10:55;;;;;;;29.88;16.92;;;8.50;48.00;;;;;;5105136;28;20024;-67
2022/03/25 06:13:31;;;;;;;24.50;15.50;;;8.50;47.80;;;;;;5057939;28;20419;-67
2022/03/25 06:15:56;;;;;;;28.90;15.02;;;8.60;47.60;;;;;;5063707;28;20082;-66
2022/03/25 06:18:23;;;;;;;32.15;15.90;;;8.70;47.50;;;;;;5096004;28;20032;-67
2022/03/25 06:20:49;;;;;;;31.55;15.63;;;8.70;47.30;;;;;;5095696;28;20442;-66
2022/03/25 06:23:15;;;;;;;30.65;16.90;;;8.80;48.00;;;;;;5095652;28;20024;-66
2022/03/25 06:25:44;;;;;;;27.02;16.50;;;8.90;47.50;;;;;;5074094;28;20025;-66
2022/03/25 06:28:15;;;;;;;41.35;20.13;;;8.90;47.40;;;;;;5074293;28;20039;-66
2022/03/25 06:30:44;;;;;;;27.23;16.95;;;9.00;47.70;;;;;;5076177;28;20037;-67
2022/03/25 06:33:10;;;;;;;30.80;18.25;;;9.00;47.20;;;;;;5063016;28;20494;-66
2022/03/25 06:35:38;;;;;;;31.58;18.13;;;9.10;47.00;;;;;;5077536;28;20165;-66
2022/03/25 06:38:05;;;;;;;45.15;18.38;;;9.20;47.00;;;;;;5077746;28;20036;-67
2022/03/25 06:40:31;;;;;;;34.50;18.77;;;9.20;47.20;;;;;;5077588;28;20399;-67
2022/03/25 06:42:57;;;;;;;37.58;19.05;;;9.30;47.40;;;;;;5090484;28;20075;-67
2022/03/25 06:45:24;;;;;;;34.17;18.23;;;9.30;47.30;;;;;;5077497;28;20506;-66
2022/03/25 06:47:52;;;;;;;39.63;17.52;;;9.40;47.10;;;;;;5077475;28;20509;-66
2022/03/25 06:50:20;;;;;;;35.85;18.35;;;9.50;46.90;;;;;;5077306;28;20028;-67
2022/03/25 06:52:50;;;;;;;34.72;17.52;;;9.60;46.70;;;;;;5095090;28;20593;-66
2022/03/25 06:55:20;;;;;;;27.50;16.73;;;9.70;46.60;;;;;;5077299;28;20020;-66
2022/03/25 06:57:49;;;;;;;28.67;16.90;;;9.80;46.50;;;;;;5061166;28;20059;-67
2022/03/25 07:00:19;;;;;;;31.67;17.17;;;9.80;46.30;;;;;;5087553;28;20023;-67
2022/03/25 07:02:49;;;;;;;35.75;17.52;;;9.90;46.10;;;;;;5094007;28;20074;-67
2022/03/25 07:05:17;;;;;;;36.72;18.77;;;10.00;45.90;;;;;;5057078;28;20024;-67
2022/03/25 07:07:49;;;;;;;35.05;17.60;;;10.10;45.80;;;;;;5057009;28;20029;-66
2022/03/25 07:10:26;;;;;;;41.50;18.30;;;10.20;45.60;;;;;;5057358;28;20028;-67
2022/03/25 07:12:53;;;;;;;27.23;17.08;;;10.30;45.50;;;;;;5063634;28;20030;-67
2022/03/25 07:15:24;;;;;;;28.50;16.38;;;10.30;45.30;;;;;;5076579;28;20454;-66
2022/03/25 07:17:52;;;;;;;36.53;17.02;;;10.40;45.30;;;;;;5086105;28;20051;-67
2022/03/25 07:20:19;;;;;;;36.10;18.05;;;10.50;45.30;;;;;;5097452;28;20062;-66
2022/03/25 07:22:47;;;;;;;30.95;18.23;;;10.60;45.10;;;;;;5093380;28;20027;-66
2022/03/25 07:25:16;;;;;;;28.05;17.33;;;10.70;45.00;;;;;;5076741;28;20467;-67
2022/03/25 07:27:43;;;;;;;31.75;17.83;;;10.70;44.80;;;;;;5076406;28;20028;-66
2022/03/25 07:30:11;;;;;;;30.17;17.38;;;10.80;44.60;;;;;;5076180;28;20032;-67
2022/03/25 07:32:37;;;;;;;32.47;18.83;;;10.90;44.50;;;;;;5076470;28;20024;-67
2022/03/25 07:35:06;;;;;;;30.42;18.67;;;11.00;44.30;;;;;;5094607;28;20032;-67
2022/03/25 07:37:32;;;;;;;29.55;17.30;;;11.10;44.10;;;;;;5061617;28;20153;-67
2022/03/25 07:39:58;;;;;;;33.88;19.80;;;11.20;43.90;;;;;;5074176;28;20119;-67
2022/03/25 07:42:26;;;;;;;34.10;18.77;;;11.20;43.50;;;;;;5074428;28;20036;-67
2022/03/25 07:44:57;;;;;;;33.38;18.83;;;11.30;43.40;;;;;;5056441;28;20086;-67
2022/03/25 07:47:23;;;;;;;43.97;19.42;;;11.40;43.30;;;;;;5056464;28;20111;-67
2022/03/25 07:49:49;;;;;;;37.50;20.75;;;11.50;43.20;;;;;;5074673;28;20623;-67
2022/03/25 07:52:16;;;;;;;40.15;20.35;;;11.60;43.20;;;;;;5056338;28;20036;-66
2022/03/25 07:54:47;;;;;;;34.13;19.33;;;11.60;43.30;;;;;;5074127;28;20021;-67
2022/03/25 07:57:13;;;;;;;31.77;17.60;;;11.70;43.20;;;;;;5073890;28;20044;-67
2022/03/25 07:59:38;;;;;;;33.85;20.00;;;11.80;43.10;;;;;;5063035;28;20037;-67
2022/03/25 08:02:07;;;;;;;28.63;18.15;;;11.90;42.80;;;;;;5070256;28;20028;-68
2022/03/25 08:04:36;;;;;;;39.70;21.25;;;11.90;42.60;;;;;;5092704;28;20379;-67
2022/03/25 08:07:02;;;;;;;41.20;20.95;;;12.00;42.90;;;;;;5075962;28;20035;-67
2022/03/25 08:09:28;;;;;;;37.67;20.10;;;12.10;42.70;;;;;;5085785;28;20043;-67
2022/03/25 08:12:05;;;;;;;37.25;21.80;;;12.20;42.70;;;;;;5073466;28;20033;-67
2022/03/25 08:14:31;;;;;;;51.50;24.35;;;12.30;42.40;;;;;;5090935;28;20024;-66
2022/03/25 08:16:56;;;;;;;35.38;20.40;;;12.40;41.80;;;;;;5083354;28;20051;-66
2022/03/25 08:19:25;;;;;;;38.10;20.80;;;12.50;41.70;;;;;;5073353;28;20040;-66
2022/03/25 08:21:59;;;;;;;42.45;20.33;;;12.60;41.80;;;;;;5079637;28;20028;-66
2022/03/25 08:29:55;;;;;;;43.95;21.25;;;12.90;41.10;;;;;;5106555;28;20111;-67
2022/03/25 08:32:21;;;;;;;51.90;21.60;;;13.00;40.80;;;;;;5059255;28;20037;-67
2022/03/25 08:34:49;;;;;;;42.78;21.67;;;13.10;40.70;;;;;;5073177;28;20047;-67
2022/03/25 08:37:20;;;;;;;42.58;20.00;;;13.20;40.70;;;;;;5055398;28;20035;-67
2022/03/25 08:39:50;;;;;;;42.55;20.75;;;13.30;40.40;;;;;;5055541;28;20060;-67
2022/03/25 08:42:19;;;;;;;49.15;22.08;;;13.40;40.10;;;;;;5078040;28;20505;-67
2022/03/25 08:44:44;;;;;;;50.35;22.05;;;13.50;39.90;;;;;;5069624;28;20025;-67
2022/03/25 08:47:13;;;;;;;41.70;20.65;;;13.60;39.80;;;;;;5079461;28;20032;-67
2022/03/25 08:49:41;;;;;;;40.20;21.35;;;13.70;39.60;;;;;;5114246;28;20039;-67
2022/03/25 08:52:10;;;;;;;45.78;21.27;;;13.80;39.50;;;;;;5077627;28;20032;-67
2022/03/25 08:54:38;;;;;;;42.58;21.95;;;13.90;39.20;;;;;;5084930;28;20024;-67
2022/03/25 08:57:06;;;;;;;49.28;22.75;;;14.00;39.10;;;;;;5091312;28;20056;-67
2022/03/25 08:59:37;;;;;;;54.03;26.05;;;14.10;38.90;;;;;;5081770;28;20355;-68
2022/03/25 09:02:08;;;;;;;60.63;25.20;;;14.20;38.20;;;;;;5080295;28;20032;-67
2022/03/25 09:04:36;;;;;;;48.88;24.23;;;14.30;38.50;;;;;;5093065;28;20059;-67
2022/03/25 09:07:08;;;;;;;58.78;26.25;;;14.30;38.40;;;;;;5091687;28;20028;-67
2022/03/25 09:09:38;;;;;;;46.67;25.20;;;14.50;38.00;;;;;;5074931;28;20024;-68
2022/03/25 09:12:10;;;;;;;49.45;24.83;;;14.50;37.80;;;;;;5088597;28;20028;-68
2022/03/25 09:14:47;;;;;;;57.10;25.30;;;14.60;37.40;;;;;;5056608;28;20031;-68
2022/03/25 09:17:20;;;;;;;53.92;25.13;;;14.70;37.50;;;;;;5078417;28;20052;-68
2022/03/25 09:19:53;;;;;;;62.38;26.75;;;14.80;37.30;;;;;;5076827;28;20112;-67
2022/03/25 09:22:22;;;;;;;48.83;25.37;;;14.90;36.40;;;;;;5058723;28;20032;-66
2022/03/25 09:24:52;;;;;;;46.22;23.27;;;15.00;36.60;;;;;;5076595;28;20099;-67
2022/03/25 09:27:23;;;;;;;59.17;27.95;;;15.00;36.60;;;;;;5076128;28;20041;-67
2022/03/25 09:29:52;;;;;;;56.08;26.30;;;15.10;36.30;;;;;;5091829;28;20028;-67
2022/03/25 09:32:18;;;;;;;56.90;25.75;;;15.20;35.80;;;;;;5078255;28;20129;-67
2022/03/25 09:37:37;;;;;;;46.38;23.20;;;15.40;35.00;;;;;;5076016;28;20070;-67
2022/03/25 09:40:12;;;;;;;50.03;22.52;;;15.40;34.80;;;;;;5076287;28;20099;-67
2022/03/25 09:42:40;;;;;;;50.28;22.02;;;15.50;34.70;;;;;;5076404;28;20490;-67
2022/03/25 09:45:09;;;;;;;46.67;22.38;;;15.60;34.90;;;;;;5058501;28;20460;-67
2022/03/25 09:47:36;;;;;;;46.20;20.50;;;15.70;34.50;;;;;;5058706;28;20058;-67
2022/03/25 09:50:04;;;;;;;41.00;21.75;;;15.80;34.30;;;;;;5075935;28;20103;-68
2022/03/25 09:52:32;;;;;;;39.88;21.35;;;15.90;33.50;;;;;;5058704;28;20062;-68
2022/03/25 09:55:01;;;;;;;45.08;21.08;;;16.00;33.50;;;;;;5089992;28;20035;-68
2022/03/25 09:57:28;;;;;;;47.67;21.83;;;16.10;33.30;;;;;;5079312;28;20435;-67
2022/03/25 09:59:58;;;;;;;49.33;25.02;;;16.10;33.00;;;;;;5073114;28;20040;-67
2022/03/25 10:02:29;;;;;;;45.17;23.35;;;16.20;32.80;;;;;;5077847;28;20025;-66
2022/03/25 10:05:00;;;;;;;48.05;24.00;;;16.30;33.00;;;;;;5095799;28;20494;-67
2022/03/25 10:07:31;;;;;;;52.80;24.80;;;16.40;32.10;;;;;;5095232;28;20107;-67
2022/03/25 10:10:07;;;;;;;47.25;25.77;;;16.50;31.50;;;;;;5088539;28;20028;-68
2022/03/25 10:12:39;;;;;;;58.85;24.10;;;16.50;31.10;;;;;;5075660;28;20032;-67
2022/03/25 10:15:40;;;;;;;46.53;21.20;;;16.60;30.60;;;;;;5083108;28;20024;-67
2022/03/25 10:18:09;;;;;;;37.50;20.33;;;16.70;31.40;;;;;;5070163;28;20433;-68
2022/03/25 10:20:45;;;;;;;34.85;20.25;;;16.80;30.90;;;;;;5077681;28;20028;-67
2022/03/25 10:23:20;;;;;;;39.80;20.27;;;16.90;30.40;;;;;;5092875;28;20024;-69
2022/03/25 10:25:55;;;;;;;35.40;20.38;;;17.00;30.20;;;;;;5074692;28;20033;-67
2022/03/25 10:28:31;;;;;;;37.30;20.42;;;17.00;30.00;;;;;;5077567;28;20064;-67
2022/03/25 10:30:59;;;;;;;37.67;19.20;;;17.10;29.80;;;;;;5095687;28;20028;-67
2022/03/25 10:33:32;;;;;;;35.40;20.40;;;17.20;29.80;;;;;;5060647;28;20020;-67
2022/03/25 10:36:07;;;;;;;39.05;19.27;;;17.30;29.50;;;;;;5077521;28;20467;-67
2022/03/25 10:39:11;;;;;;;43.25;21.42;;;17.40;29.20;;;;;;5095370;28;20127;-68
2022/03/25 10:41:50;;;;;;;39.13;20.52;;;17.50;29.10;;;;;;5072909;28;20119;-67
2022/03/25 10:44:16;;;;;;;46.35;23.40;;;17.60;29.10;;;;;;5075819;28;20038;-67
2022/03/25 10:46:53;;;;;;;40.42;21.88;;;17.70;28.60;;;;;;5093899;28;20039;-68
2022/03/25 10:49:22;;;;;;;38.03;22.05;;;17.70;28.00;;;;;;5085036;28;20056;-68
2022/03/25 10:52:00;;;;;;;40.88;21.27;;;17.80;28.20;;;;;;5074890;28;20012;-68
2022/03/25 10:54:34;;;;;;;41.90;22.15;;;17.90;28.40;;;;;;5057503;28;20066;-67
2022/03/25 10:57:01;;;;;;;32.10;19.65;;;17.90;27.70;;;;;;5075175;28;20079;-68
2022/03/25 10:59:34;;;;;;;47.17;20.48;;;18.00;28.40;;;;;;5066414;28;20036;-68
2022/03/25 11:02:20;;;;;;;33.78;19.98;;;18.10;28.40;;;;;;5061478;28;20035;-67
2022/03/25 11:04:54;;;;;;;39.40;19.90;;;18.20;28.20;;;;;;5088454;28;20475;-67
2022/03/25 11:07:42;;;;;;;38.67;21.67;;;18.30;28.10;;;;;;5068078;28;20032;-68
2022/03/25 11:10:11;;;;;;;37.15;21.52;;;18.40;27.70;;;;;;5077250;28;20036;-67
2022/03/25 11:13:09;;;;;;;46.30;22.40;;;18.40;27.60;;;;;;5070600;28;20025;-67
2022/03/25 11:15:50;;;;;;;38.75;21.67;;;18.50;26.80;;;;;;5073494;28;20044;-67
2022/03/25 11:18:17;;;;;;;35.80;20.45;;;18.60;27.00;;;;;;5066069;28;20432;-65
2022/03/25 11:20:44;;;;;;;40.33;19.98;;;18.70;27.00;;;;;;5094051;28;20039;-65
2022/03/25 11:23:23;;;;;;;35.45;18.90;;;18.70;26.90;;;;;;5094983;28;20051;-65
2022/03/25 11:25:52;;;;;;;39.17;21.63;;;18.80;27.30;;;;;;5076595;28;20028;-65
2022/03/25 11:28:30;;;;;;;38.47;20.98;;;18.80;26.60;;;;;;5088661;28;20039;-67
2022/03/25 11:31:05;;;;;;;36.80;21.17;;;18.90;26.70;;;;;;5075936;28;20020;-65
2022/03/25 11:33:31;;;;;;;33.92;20.23;;;19.00;26.80;;;;;;5086709;28;20081;-65
2022/03/25 11:36:19;;;;;;;34.10;19.05;;;19.10;26.60;;;;;;5085401;28;20111;-65
2022/03/25 11:39:07;;;;;;;39.70;21.35;;;19.10;26.80;;;;;;5092472;28;20047;-66
2022/03/25 11:41:33;;;;;;;34.83;21.25;;;19.20;26.20;;;;;;5056174;28;20052;-66
2022/03/25 11:44:14;;;;;;;35.92;21.13;;;19.30;26.00;;;;;;5074084;28;20059;-66
2022/03/25 11:46:58;;;;;;;38.22;22.27;;;19.30;25.90;;;;;;5083505;28;20031;-66
2022/03/25 11:49:43;;;;;;;;;;;19.40;25.70;;;;;;5082911;28;20340;-67
2022/03/25 11:52:31;;;;;;;39.40;20.67;;;19.50;26.80;;;;;;5075330;28;19908;-67
2022/03/25 11:55:00;;;;;;;43.53;23.33;;;19.60;25.60;;;;;;5055890;28;20032;-66
2022/03/25 11:57:35;;;;;;;41.88;23.67;;;19.70;25.20;;;;;;5080241;28;20467;-66
2022/03/25 12:00:11;;;;;;;42.63;23.98;;;19.80;25.20;;;;;;5095900;28;20035;-66
2022/03/25 12:02:43;;;;;;;38.17;23.83;;;19.80;24.50;;;;;;5095980;28;20024;-65
2022/03/25 12:05:24;;;;;;;39.25;23.15;;;19.90;24.50;;;;;;5094955;27;20040;-65
2022/03/25 12:08:20;;;;;;;35.00;22.10;;;19.90;24.40;;;;;;5093923;28;20042;-67
2022/03/25 12:10:47;;;;;;;43.05;24.23;;;20.10;24.70;;;;;;5075363;28;20024;-68
2022/03/25 12:13:13;;;;;;;33.97;21.27;;;20.10;24.10;;;;;;5091171;28;20386;-67
2022/03/25 12:15:41;;;;;;;36.92;22.38;;;20.20;24.20;;;;;;5114273;28;20032;-66
2022/03/25 12:18:44;;;;;;;36.60;21.67;;;20.30;24.00;;;;;;5077510;28;20032;-65
2022/03/25 12:21:33;;;;;;;41.85;23.17;;;20.30;24.40;;;;;;5075683;28;20036;-66
2022/03/25 12:24:01;;;;;;;31.05;21.15;;;20.50;24.50;;;;;;5087875;28;20047;-66
2022/03/25 12:26:35;;;;;;;34.53;22.08;;;20.50;24.20;;;;;;5105237;28;20124;-66
2022/03/25 12:29:02;;;;;;;;;;;20.60;24.10;;;;;;5122155;27;20031;-66
2022/03/25 12:31:29;;;;;;;36.97;23.50;;;20.70;25.10;;;;;;5075167;28;20021;-67
2022/03/25 12:34:01;;;;;;;34.53;22.08;;;20.70;23.70;;;;;;5086870;28;20436;-67
2022/03/25 12:36:35;;;;;;;35.70;21.73;;;20.80;23.50;;;;;;5083974;28;20051;-67
2022/03/25 12:39:01;;;;;;;32.45;21.35;;;20.80;23.60;;;;;;5106454;27;20475;-66
2022/03/25 12:41:30;;;;;;;37.30;23.20;;;20.90;23.80;;;;;;5101216;28;20115;-66
2022/03/25 12:44:02;;;;;;;40.08;23.85;;;20.90;23.30;;;;;;5103043;27;20115;-66
2022/03/25 12:46:29;;;;;;;42.05;22.83;;;21.00;22.90;;;;;;5101380;28;20078;-67
2022/03/25 12:49:06;;;;;;;33.97;21.90;;;21.00;23.30;;;;;;5100385;28;20028;-66
2022/03/25 12:51:35;;;;;;;33.08;21.75;;;21.10;23.30;;;;;;5099259;27;20027;-66
2022/03/25 12:54:02;;;;;;;33.03;19.13;;;21.10;22.70;;;;;;5115382;27;20027;-66